createdAt,value
2019-04-14T00:04:22.593Z,100769.43
2019-04-14T00:09:27.231Z,100767.25
2019-04-14T00:14:31.511Z,100753.38
2019-04-14T00:19:35.033Z,100748.83
2019-04-14T00:24:38.532Z,100752.40
2019-04-14T00:29:42.000Z,100755.17
2019-04-14T00:35:02.295Z,100753.59
2019-04-14T00:40:12.910Z,100749.05
2019-04-14T00:45:31.954Z,100749.05
2019-04-14T00:50:26.070Z,100751.66
2019-04-14T00:55:29.529Z,100749.64
2019-04-14T01:00:34.114Z,100749.83
2019-04-14T01:05:37.747Z,100747.84
2019-04-14T01:10:41.247Z,100742.69
2019-04-14T01:15:51.487Z,100737.73
2019-04-14T01:20:49.858Z,100735.75
2019-04-14T01:25:54.222Z,100736.95
2019-04-14T01:30:58.934Z,100733.98
2019-04-14T01:36:02.494Z,100729.02
2019-04-14T01:41:06.428Z,100739.52
2019-04-14T01:46:16.584Z,100732.23
2019-04-14T01:51:33.062Z,100736.39
2019-04-14T01:56:44.925Z,100736.20
2019-04-14T02:01:50.087Z,100750.07
2019-04-14T02:06:53.553Z,100752.66
2019-04-14T02:11:57.483Z,100754.63
2019-04-14T02:17:03.138Z,100748.69
2019-04-14T02:22:07.351Z,100750.67
2019-04-14T02:27:11.961Z,100755.19
2019-04-14T02:32:42.517Z,100753.20
2019-04-14T02:42:55.880Z,100753.99
2019-04-14T02:53:07.703Z,100751.03
2019-04-14T02:58:16.454Z,100753.44
2019-04-14T03:03:16.039Z,100751.27
2019-04-14T03:08:25.595Z,100752.05
2019-04-14T03:28:46.019Z,100750.88
2019-04-14T03:39:00.067Z,100753.66
2019-04-14T03:43:57.702Z,100744.73
2019-04-14T03:49:10.028Z,100745.52
2019-04-14T03:54:06.197Z,100744.33
2019-04-14T03:58:49.045Z,100745.13
2019-04-14T04:03:52.525Z,100750.67
2019-04-14T04:08:56.031Z,100751.66
2019-04-14T04:14:00.618Z,100749.47
2019-04-14T04:19:13.487Z,100751.66
2019-04-14T04:24:29.251Z,100750.07
2019-04-14T04:29:42.617Z,100752.05
2019-04-14T04:34:47.717Z,100754.83
2019-04-14T04:39:56.154Z,100754.04
2019-04-14T04:44:59.677Z,100755.23
2019-04-14T04:50:04.346Z,100761.78
2019-04-14T04:55:08.877Z,100760.39
2019-04-14T05:00:13.454Z,100769.31
2019-04-14T05:05:53.603Z,100761.18
2019-04-14T05:11:01.191Z,100764.16
2019-04-14T05:16:04.653Z,100766.92
2019-04-14T05:21:08.215Z,100771.28
2019-04-14T05:26:11.650Z,100776.83
2019-04-14T05:31:16.358Z,100782.57
2019-04-14T05:36:19.955Z,100782.57
2019-04-14T05:41:24.446Z,100781.98
2019-04-14T05:46:27.961Z,100781.19
2019-04-14T05:51:32.522Z,100773.47
2019-04-14T05:56:37.644Z,100784.77
2019-04-14T06:01:42.076Z,100793.09
2019-04-14T06:06:45.593Z,100796.45
2019-04-14T06:11:49.053Z,100795.47
2019-04-14T06:16:52.512Z,100804.39
2019-04-14T06:21:55.968Z,100801.81
2019-04-14T06:26:59.423Z,100797.65
2019-04-14T06:32:04.522Z,100801.81
2019-04-14T06:37:12.262Z,100804.97
2019-04-14T06:42:15.731Z,100802.00
2019-04-14T06:47:19.194Z,100806.16
2019-04-14T06:52:22.654Z,100808.94
2019-04-14T06:57:26.112Z,100809.73
2019-04-14T07:02:29.580Z,100816.07
2019-04-14T07:07:33.038Z,100808.20
2019-04-14T07:12:36.497Z,100818.43
2019-04-14T07:17:39.953Z,100818.43
2019-04-14T07:22:43.412Z,100826.33
2019-04-14T07:27:46.873Z,100822.17
2019-04-14T07:32:51.974Z,100829.23
2019-04-14T07:38:03.017Z,100834.17
2019-04-14T07:43:10.990Z,100837.52
2019-04-14T07:48:18.802Z,100842.84
2019-04-14T07:53:23.904Z,100835.09
2019-04-14T07:58:45.331Z,100838.63
2019-04-14T08:03:56.118Z,100831.70
2019-04-14T08:08:59.588Z,100843.52
2019-04-14T08:14:03.118Z,100852.83
2019-04-14T08:19:06.579Z,100859.52
2019-04-14T08:24:10.036Z,100850.81
2019-04-14T08:29:13.494Z,100856.32
2019-04-14T08:34:16.949Z,100862.23
2019-04-14T08:39:20.416Z,100865.79
2019-04-14T08:44:25.513Z,100863.77
2019-04-14T08:49:39.906Z,100861.02
2019-04-14T08:54:56.949Z,100863.17
2019-04-14T09:00:07.549Z,100865.94
2019-04-14T09:05:12.829Z,100864.91
2019-04-14T09:10:20.594Z,100864.70
2019-04-14T09:15:24.059Z,100869.45
2019-04-14T09:20:27.598Z,100869.82
2019-04-14T09:25:31.042Z,100869.22
2019-04-14T09:30:34.501Z,100871.80
2019-04-14T09:35:37.971Z,100877.14
2019-04-14T09:40:41.453Z,100873.34
2019-04-14T09:45:44.920Z,100878.69
2019-04-14T09:50:48.377Z,100880.66
2019-04-14T09:55:51.839Z,100884.82
2019-04-14T10:00:55.303Z,100876.11
2019-04-14T10:05:58.764Z,100877.89
2019-04-14T10:11:02.232Z,100877.89
2019-04-14T10:16:05.689Z,100877.10
2019-04-14T10:21:17.322Z,100888.98
2019-04-14T10:26:14.349Z,100889.19
2019-04-14T10:31:17.815Z,100889.38
2019-04-14T10:36:21.279Z,100892.56
2019-04-14T10:41:24.742Z,100892.75
2019-04-14T10:46:28.213Z,100885.81
2019-04-14T10:51:34.055Z,100888.39
2019-04-14T10:56:36.878Z,100889.39
2019-04-14T11:01:40.387Z,100889.19
2019-04-14T11:06:51.665Z,100886.06
2019-04-14T11:11:55.125Z,100886.27
2019-04-14T11:16:58.594Z,100882.30
2019-04-14T11:22:02.135Z,100887.89
2019-04-14T11:27:05.602Z,100891.66
2019-04-14T11:32:28.674Z,100898.98
2019-04-14T11:37:33.792Z,100908.33
2019-04-14T11:42:37.247Z,100908.92
2019-04-14T11:47:40.720Z,100908.92
2019-04-14T11:52:44.184Z,100910.48
2019-04-14T11:57:47.641Z,100908.33
2019-04-14T12:03:08.958Z,100912.66
2019-04-14T12:08:14.070Z,100905.39
2019-04-14T12:13:17.532Z,100905.39
2019-04-14T12:18:20.994Z,100913.25
2019-04-14T12:23:24.453Z,100908.33
2019-04-14T12:28:28.452Z,100908.92
2019-04-14T12:33:32.064Z,100906.55
2019-04-14T12:38:35.592Z,100898.23
2019-04-14T12:43:43.615Z,100901.00
2019-04-14T12:48:51.134Z,100899.61
2019-04-14T12:53:54.601Z,100908.13
2019-04-14T12:58:59.972Z,100912.09
2019-04-14T13:04:03.433Z,100919.03
2019-04-14T13:09:07.535Z,100905.16
2019-04-14T13:14:11.010Z,100909.13
2019-04-14T13:19:14.588Z,100896.25
2019-04-14T13:24:18.050Z,100894.23
2019-04-14T13:29:21.515Z,100899.77
2019-04-14T13:34:24.973Z,100903.10
2019-04-14T13:39:28.465Z,100903.30
2019-04-14T13:44:32.024Z,100893.39
2019-04-14T13:49:37.062Z,100895.97
2019-04-14T13:54:40.548Z,100890.42
2019-04-14T13:59:44.014Z,100889.04
2019-04-14T14:04:47.477Z,100887.48
2019-04-14T14:09:51.207Z,100891.05
2019-04-14T14:14:56.309Z,100884.71
2019-04-14T14:20:17.604Z,100893.63
2019-04-14T14:25:22.696Z,100890.86
2019-04-14T14:30:34.883Z,100885.31
2019-04-14T14:35:38.357Z,100890.06
2019-04-14T14:40:41.821Z,100882.94
2019-04-14T14:45:52.633Z,100887.09
2019-04-14T14:51:09.872Z,100881.75
2019-04-14T14:56:13.318Z,100882.73
2019-04-14T15:01:16.778Z,100888.28
2019-04-14T15:06:20.646Z,100886.70
2019-04-14T15:11:24.108Z,100883.92
2019-04-14T15:16:27.733Z,100888.09
2019-04-14T15:21:31.199Z,100878.38
2019-04-14T15:26:34.657Z,100884.72
2019-04-14T15:31:38.161Z,100886.14
2019-04-14T15:36:41.621Z,100894.23
2019-04-14T15:41:45.150Z,100894.83
2019-04-14T15:46:48.611Z,100891.26
2019-04-14T15:51:52.070Z,100891.26
2019-04-14T15:57:02.857Z,100894.03
2019-04-14T16:02:13.777Z,100889.67
2019-04-14T16:07:24.617Z,100891.85
2019-04-14T16:12:29.714Z,100898.00
2019-04-14T16:17:34.808Z,100896.21
2019-04-14T16:22:39.136Z,100896.61
2019-04-14T16:27:44.284Z,100899.17
2019-04-14T16:33:05.682Z,100894.78
2019-04-14T16:38:09.141Z,100902.11
2019-04-14T16:43:12.592Z,100902.31
2019-04-14T16:48:16.049Z,100902.50
2019-04-14T16:53:30.115Z,100905.64
2019-04-14T16:58:38.423Z,100906.44
2019-04-14T17:03:41.876Z,100903.66
2019-04-14T17:08:45.337Z,100906.03
2019-04-14T17:13:52.862Z,100913.16
2019-04-14T17:19:12.658Z,100911.98
2019-04-14T17:24:17.767Z,100918.91
2019-04-14T17:29:22.872Z,100924.66
2019-04-14T17:34:28.005Z,100927.43
2019-04-14T17:39:38.802Z,100933.38
2019-04-14T17:44:43.901Z,100938.09
2019-04-14T17:49:51.707Z,100938.09
2019-04-14T17:55:09.057Z,100939.67
2019-04-14T18:00:14.388Z,100947.01
2019-04-14T18:05:35.853Z,100950.58
2019-04-14T18:10:40.953Z,100956.13
2019-04-14T18:15:52.063Z,100961.48
2019-04-14T18:20:57.159Z,100969.01
2019-04-14T18:26:00.791Z,100972.58
2019-04-14T18:31:05.888Z,100973.17
2019-04-14T18:36:16.545Z,100980.91
2019-04-14T18:41:24.611Z,100989.22
2019-04-14T18:46:29.726Z,100993.98
2019-04-14T18:51:34.852Z,101000.72
2019-04-14T18:56:48.452Z,101001.52
2019-04-14T19:01:53.553Z,101001.91
2019-04-14T19:06:57.058Z,101001.91
2019-04-14T19:12:05.512Z,101011.03
2019-04-14T19:17:19.383Z,101011.82
2019-04-14T19:22:22.870Z,101018.76
2019-04-14T19:27:26.357Z,101019.55
2019-04-14T19:32:29.830Z,101026.87
2019-04-14T19:37:33.325Z,101028.47
2019-04-14T19:42:36.801Z,101034.61
2019-04-14T19:47:40.284Z,101037.98
2019-04-14T19:52:43.763Z,101041.55
2019-04-14T19:57:47.249Z,101039.77
2019-04-14T20:02:50.725Z,101045.52
2019-04-14T20:07:54.204Z,101051.45
2019-04-14T20:12:57.958Z,101052.25
2019-04-14T20:18:15.098Z,101056.84
2019-04-14T20:23:22.917Z,101057.80
2019-04-14T20:28:31.217Z,101061.96
2019-04-14T20:33:34.694Z,101073.86
2019-04-14T20:38:38.196Z,101071.67
2019-04-14T20:43:41.676Z,101071.08
2019-04-14T20:48:45.211Z,101079.41
2019-04-14T20:53:48.670Z,101079.41
2019-04-14T20:58:52.149Z,101085.74
2019-04-14T21:04:00.026Z,101085.34
2019-04-14T21:09:17.306Z,101091.49
2019-04-14T21:14:25.233Z,101098.43
2019-04-14T21:19:36.577Z,101098.23
2019-04-14T21:24:50.930Z,101106.55
2019-04-14T21:29:58.971Z,101104.77
2019-04-14T21:35:06.469Z,101113.31
2019-04-14T21:40:17.263Z,101102.61
2019-04-14T21:45:20.734Z,101107.17
2019-04-14T21:50:24.215Z,101112.31
2019-04-14T21:55:27.697Z,101119.09
2019-04-14T22:00:53.393Z,101120.86
2019-04-14T22:05:58.511Z,101128.39
2019-04-14T22:11:03.797Z,101132.95
2019-04-14T22:16:07.274Z,101129.38
2019-04-14T22:21:10.747Z,101136.11
2019-04-14T22:26:25.496Z,101144.86
2019-04-14T22:31:20.158Z,101142.68
2019-04-14T22:36:23.638Z,101141.09
2019-04-14T22:41:27.116Z,101149.41
2019-04-14T22:46:30.577Z,101154.77
2019-04-14T22:51:34.075Z,101160.31
2019-04-14T22:56:39.550Z,101165.45
2019-04-14T23:01:44.322Z,101165.45
2019-04-14T23:07:05.452Z,101161.30
2019-04-14T23:12:22.559Z,101164.86
2019-04-14T23:17:33.316Z,101161.09
2019-04-14T23:22:54.797Z,101170.80
2019-04-14T23:27:58.259Z,101169.22
2019-04-14T23:33:01.724Z,101160.89
2019-04-14T23:38:05.204Z,101160.09
2019-04-14T23:43:08.653Z,101166.44
2019-04-14T23:48:12.117Z,101168.63
2019-04-14T23:53:15.584Z,101173.97
2019-04-14T23:58:19.047Z,101168.42
